createdAt,value
2018-12-14T00:02:21.237Z,-1.92
2018-12-14T00:04:52.118Z,-1.94
2018-12-14T00:07:22.945Z,-1.93
2018-12-14T00:09:51.827Z,-1.99
2018-12-14T00:12:20.761Z,-2.02
2018-12-14T00:14:49.782Z,-2.12
2018-12-14T00:17:18.908Z,-2.15
2018-12-14T00:19:47.847Z,-2.18
2018-12-14T00:22:17.096Z,-2.14
2018-12-14T00:24:45.996Z,-2.09
2018-12-14T00:27:15.123Z,-2.12
2018-12-14T00:29:44.323Z,-2.09
2018-12-14T00:32:13.713Z,-2.06
2018-12-14T00:34:42.544Z,-2.01
2018-12-14T00:37:11.415Z,-2.03
2018-12-14T00:39:40.494Z,-2.02
2018-12-14T00:42:09.334Z,-2.04
2018-12-14T00:44:38.174Z,-2.09
2018-12-14T00:47:07.486Z,-2.12
2018-12-14T00:54:40.880Z,-2.51
2018-12-14T00:57:09.803Z,-2.70
2018-12-14T00:59:38.687Z,-2.87
2018-12-14T01:02:11.695Z,-3.05
2018-12-14T01:04:40.555Z,-3.15
2018-12-14T01:07:09.563Z,-3.21
2018-12-14T01:09:38.562Z,-3.18
2018-12-14T01:12:09.393Z,-3.17
2018-12-14T01:14:38.243Z,-3.16
2018-12-14T01:17:07.079Z,-3.16
2018-12-14T01:19:36.107Z,-3.10
2018-12-14T01:22:05.042Z,-3.09
2018-12-14T01:24:33.919Z,-3.11
2018-12-14T01:27:02.782Z,-3.18
2018-12-14T01:29:31.884Z,-3.23
2018-12-14T01:32:00.751Z,-3.32
2018-12-14T01:34:29.614Z,-3.34
2018-12-14T01:36:58.706Z,-3.37
2018-12-14T01:39:27.565Z,-3.42
2018-12-14T01:41:56.506Z,-3.42
2018-12-14T01:44:25.422Z,-3.45
2018-12-14T01:46:54.410Z,-3.46
2018-12-14T01:49:23.302Z,-3.42
2018-12-14T01:51:52.413Z,-3.36
2018-12-14T01:54:21.355Z,-3.24
2018-12-14T01:56:50.299Z,-3.19
2018-12-14T01:59:19.145Z,-3.14
2018-12-14T02:01:48.020Z,-3.15
2018-12-14T02:04:16.943Z,-3.07
2018-12-14T02:06:45.806Z,-3.09
2018-12-14T02:09:14.770Z,-3.16
2018-12-14T02:11:43.692Z,-3.18
2018-12-14T02:14:12.675Z,-3.17
2018-12-14T02:16:41.536Z,-3.15
2018-12-14T02:19:10.551Z,-3.14
2018-12-14T02:21:39.547Z,-3.14
2018-12-14T02:24:08.470Z,-3.17
2018-12-14T02:26:37.332Z,-3.26
2018-12-14T02:29:06.196Z,-3.25
2018-12-14T02:31:35.109Z,-3.27
2018-12-14T02:34:04.012Z,-3.30
2018-12-14T02:36:33.254Z,-3.40
2018-12-14T02:39:02.204Z,-3.42
2018-12-14T02:41:33.046Z,-3.43
2018-12-14T02:44:01.886Z,-3.45
2018-12-14T02:46:30.734Z,-3.48
2018-12-14T02:48:59.593Z,-3.50
2018-12-14T02:51:28.610Z,-3.51
2018-12-14T02:53:57.500Z,-3.57
2018-12-14T02:56:26.391Z,-3.59
2018-12-14T02:58:55.346Z,-3.62
2018-12-14T03:01:24.243Z,-3.63
2018-12-14T03:03:53.096Z,-3.73
2018-12-14T03:06:21.937Z,-3.80
2018-12-14T03:08:50.797Z,-3.94
2018-12-14T03:11:20.079Z,-3.90
2018-12-14T03:13:48.914Z,-4.03
2018-12-14T03:16:17.812Z,-4.15
2018-12-14T03:18:46.797Z,-4.19
2018-12-14T03:21:15.745Z,-4.18
2018-12-14T03:23:44.671Z,-4.23
2018-12-14T03:26:13.599Z,-4.30
2018-12-14T03:28:42.431Z,-4.25
2018-12-14T03:31:11.295Z,-4.22
2018-12-14T03:33:40.256Z,-4.32
2018-12-14T03:36:09.268Z,-4.32
2018-12-14T03:38:38.119Z,-4.29
2018-12-14T03:41:07.071Z,-4.24
2018-12-14T03:43:36.006Z,-4.23
2018-12-14T03:46:05.009Z,-4.19
2018-12-14T03:48:33.925Z,-4.18
2018-12-14T03:51:02.777Z,-4.08
2018-12-14T03:53:31.623Z,-4.08
2018-12-14T03:56:00.548Z,-4.10
2018-12-14T03:58:29.541Z,-4.14
2018-12-14T04:00:58.475Z,-4.17
2018-12-14T04:03:27.371Z,-4.22
2018-12-14T04:05:56.339Z,-4.23
2018-12-14T04:08:25.173Z,-4.25
2018-12-14T04:10:54.029Z,-4.27
2018-12-14T04:13:22.872Z,-4.28
2018-12-14T04:15:51.792Z,-4.34
2018-12-14T04:18:20.926Z,-4.34
2018-12-14T04:20:49.799Z,-4.37
2018-12-14T04:23:18.690Z,-4.32
2018-12-14T04:25:47.549Z,-4.35
2018-12-14T04:28:16.447Z,-4.36
2018-12-14T04:30:45.288Z,-4.36
2018-12-14T04:33:15.116Z,-4.32
2018-12-14T04:35:43.927Z,-4.26
2018-12-14T04:38:14.853Z,-4.19
2018-12-14T04:40:43.685Z,-4.15
2018-12-14T04:43:12.580Z,-4.09
2018-12-14T04:45:41.919Z,-4.05
2018-12-14T04:48:17.555Z,-3.99
2018-12-14T04:50:46.418Z,-3.93
2018-12-14T04:53:15.280Z,-3.84
2018-12-14T04:55:44.211Z,-3.80
2018-12-14T04:58:13.066Z,-3.73
2018-12-14T05:00:41.949Z,-3.64
2018-12-14T05:03:10.827Z,-3.55
2018-12-14T05:05:39.679Z,-3.52
2018-12-14T05:08:08.529Z,-3.49
2018-12-14T05:10:37.464Z,-3.48
2018-12-14T05:13:06.723Z,-3.41
2018-12-14T05:15:35.551Z,-3.35
2018-12-14T05:18:04.383Z,-3.32
2018-12-14T05:20:33.223Z,-3.28
2018-12-14T05:23:02.163Z,-3.26
2018-12-14T05:25:31.163Z,-3.26
2018-12-14T05:28:00.015Z,-3.23
2018-12-14T05:30:29.037Z,-3.17
2018-12-14T05:32:58.093Z,-3.08
2018-12-14T05:35:26.950Z,-3.02
2018-12-14T05:37:55.816Z,-2.94
2018-12-14T05:40:24.643Z,-2.85
2018-12-14T05:42:53.508Z,-2.77
2018-12-14T05:45:22.340Z,-2.76
2018-12-14T05:47:51.268Z,-2.71
2018-12-14T05:50:20.164Z,-2.70
2018-12-14T05:52:49.048Z,-2.70
2018-12-14T05:55:17.932Z,-2.70
2018-12-14T05:57:47.093Z,-2.69
2018-12-14T06:00:16.110Z,-2.71
2018-12-14T06:02:44.984Z,-2.68
2018-12-14T06:05:13.935Z,-2.61
2018-12-14T06:07:42.762Z,-2.58
2018-12-14T06:10:11.789Z,-2.53
2018-12-14T06:12:40.755Z,-2.44
2018-12-14T06:15:09.659Z,-2.40
2018-12-14T06:17:38.550Z,-2.38
2018-12-14T06:20:07.891Z,-2.36
2018-12-14T06:22:36.726Z,-2.30
2018-12-14T06:25:05.773Z,-2.31
2018-12-14T06:27:34.724Z,-2.27
2018-12-14T06:30:04.254Z,-2.27
2018-12-14T06:32:33.233Z,-2.28
2018-12-14T06:35:02.503Z,-2.22
2018-12-14T06:37:31.731Z,-2.21
2018-12-14T06:40:00.618Z,-2.22
2018-12-14T06:42:29.628Z,-2.15
2018-12-14T06:44:58.816Z,-2.19
2018-12-14T06:47:29.430Z,-2.16
2018-12-14T06:49:58.273Z,-2.13
2018-12-14T06:52:27.187Z,-2.12
2018-12-14T06:54:56.043Z,-2.07
2018-12-14T06:57:24.983Z,-2.06
2018-12-14T06:59:53.889Z,-2.07
2018-12-14T07:02:22.735Z,-2.07
2018-12-14T07:04:51.612Z,-2.12
2018-12-14T07:07:20.452Z,-2.13
2018-12-14T07:09:49.385Z,-2.08
2018-12-14T07:12:18.341Z,-2.04
2018-12-14T07:14:48.329Z,-2.01
2018-12-14T07:17:17.176Z,-1.95
2018-12-14T07:19:46.550Z,-1.96
2018-12-14T07:22:15.438Z,-1.89
2018-12-14T07:24:44.286Z,-1.90
2018-12-14T07:27:13.132Z,-1.81
2018-12-14T07:29:42.008Z,-1.71
2018-12-14T07:32:10.922Z,-1.75
2018-12-14T07:34:39.767Z,-1.73
2018-12-14T07:37:08.599Z,-1.73
2018-12-14T07:39:37.460Z,-1.61
2018-12-14T07:42:06.300Z,-1.60
2018-12-14T07:44:35.330Z,-1.50
2018-12-14T07:47:04.495Z,-1.51
2018-12-14T07:49:33.314Z,-1.43
2018-12-14T07:52:02.141Z,-1.37
2018-12-14T07:54:31.000Z,-1.30
2018-12-14T07:56:59.835Z,-1.28
2018-12-14T07:59:28.712Z,-1.28
2018-12-14T08:01:57.567Z,-1.20
2018-12-14T08:04:26.712Z,-1.19
2018-12-14T08:06:56.067Z,-1.17
2018-12-14T08:09:25.895Z,-1.06
2018-12-14T08:11:54.819Z,-0.93
2018-12-14T08:14:23.791Z,-1.00
2018-12-14T08:16:52.691Z,-0.95
2018-12-14T08:19:21.563Z,-0.88
2018-12-14T08:21:50.455Z,-0.50
2018-12-14T08:24:19.431Z,-0.59
2018-12-14T08:26:48.337Z,-0.71
2018-12-14T08:29:17.175Z,-0.56
2018-12-14T08:31:46.083Z,-0.58
2018-12-14T08:34:14.933Z,-0.35
2018-12-14T08:36:43.806Z,-0.23
2018-12-14T08:39:12.959Z,-0.30
2018-12-14T08:41:41.803Z,-0.24
2018-12-14T08:44:10.643Z,-0.32
2018-12-14T08:46:39.499Z,-0.26
2018-12-14T08:49:08.351Z,-0.25
2018-12-14T08:51:37.193Z,-0.12
2018-12-14T08:54:06.170Z,-0.14
2018-12-14T08:56:35.011Z,-0.07
2018-12-14T08:59:03.846Z,0.06
2018-12-14T09:01:32.702Z,0.09
2018-12-14T09:04:01.515Z,0.04
2018-12-14T09:06:30.382Z,-0.01
2018-12-14T09:08:59.236Z,0.15
2018-12-14T09:11:28.146Z,0.29
2018-12-14T09:13:57.062Z,0.44
2018-12-14T09:16:26.074Z,0.46
2018-12-14T09:18:54.944Z,0.46
2018-12-14T09:21:23.882Z,0.55
2018-12-14T09:23:52.761Z,0.55
2018-12-14T09:26:21.594Z,0.52
2018-12-14T09:28:50.582Z,0.60
2018-12-14T09:31:19.844Z,0.56
2018-12-14T09:33:48.792Z,0.72
2018-12-14T09:36:17.783Z,0.67
2018-12-14T09:38:46.760Z,0.81
2018-12-14T09:41:16.397Z,0.75
2018-12-14T09:43:45.475Z,0.75
2018-12-14T09:46:14.369Z,0.74
2018-12-14T09:48:43.265Z,0.84
2018-12-14T09:51:12.657Z,1.11
2018-12-14T09:53:41.529Z,1.02
2018-12-14T09:56:10.431Z,0.92
2018-12-14T09:58:39.274Z,0.99
2018-12-14T10:01:08.152Z,1.01
2018-12-14T10:03:37.191Z,1.02
2018-12-14T10:06:06.142Z,1.09
2018-12-14T10:08:34.990Z,1.26
2018-12-14T10:11:03.928Z,1.29
2018-12-14T10:13:32.914Z,1.32
2018-12-14T10:16:02.163Z,1.17
2018-12-14T10:18:31.062Z,1.28
2018-12-14T10:20:59.962Z,1.20
2018-12-14T10:23:28.797Z,1.19
2018-12-14T10:25:57.702Z,1.29
2018-12-14T10:28:26.614Z,1.61
2018-12-14T10:30:55.476Z,1.79
2018-12-14T10:33:26.787Z,1.88
2018-12-14T10:35:55.827Z,1.99
2018-12-14T10:38:25.757Z,2.06
2018-12-14T10:40:54.649Z,2.20
2018-12-14T10:43:23.917Z,2.69
2018-12-14T10:45:52.993Z,2.55
2018-12-14T10:48:22.043Z,2.55
2018-12-14T10:50:50.918Z,2.58
2018-12-14T10:53:19.793Z,2.43
2018-12-14T10:55:48.619Z,2.31
2018-12-14T10:58:17.919Z,2.33
2018-12-14T11:00:52.194Z,2.33
2018-12-14T11:03:21.062Z,2.41
2018-12-14T11:05:49.896Z,2.16
2018-12-14T11:08:18.727Z,2.27
2018-12-14T11:10:47.630Z,2.28
2018-12-14T11:13:16.573Z,2.26
2018-12-14T11:15:45.461Z,1.97
2018-12-14T11:18:14.299Z,2.09
2018-12-14T11:20:43.130Z,2.00
2018-12-14T11:23:11.955Z,1.87
2018-12-14T11:25:40.791Z,1.72
2018-12-14T11:28:09.620Z,1.87
2018-12-14T11:30:39.428Z,1.92
2018-12-14T11:33:08.996Z,1.94
2018-12-14T11:35:37.814Z,1.78
2018-12-14T11:38:06.731Z,1.68
2018-12-14T11:40:35.607Z,1.69
2018-12-14T11:43:04.427Z,1.75
2018-12-14T11:45:33.251Z,1.84
2018-12-14T11:48:02.183Z,1.79
2018-12-14T11:50:31.023Z,1.82
2018-12-14T11:52:59.987Z,1.78
2018-12-14T11:55:28.870Z,1.59
2018-12-14T11:57:57.798Z,1.62
2018-12-14T12:00:26.776Z,1.54
2018-12-14T12:02:55.668Z,1.61
2018-12-14T12:05:24.508Z,1.55
2018-12-14T12:07:53.606Z,1.59
2018-12-14T12:10:22.522Z,1.65
2018-12-14T12:12:51.419Z,1.80
2018-12-14T12:15:20.240Z,1.75
2018-12-14T12:17:49.783Z,1.85
2018-12-14T12:20:18.659Z,1.86
2018-12-14T12:22:47.575Z,1.86
2018-12-14T12:25:16.419Z,1.92
2018-12-14T12:27:45.295Z,1.93
2018-12-14T12:30:14.233Z,1.97
2018-12-14T12:32:43.135Z,2.10
2018-12-14T12:35:11.991Z,2.13
2018-12-14T12:37:40.809Z,2.12
2018-12-14T12:40:10.482Z,2.10
2018-12-14T12:42:39.602Z,1.93
2018-12-14T12:45:08.727Z,1.99
2018-12-14T12:47:37.622Z,1.99
2018-12-14T12:50:06.931Z,2.04
2018-12-14T12:52:35.846Z,1.98
2018-12-14T12:55:04.998Z,2.16
2018-12-14T12:57:33.880Z,2.08
2018-12-14T13:00:02.745Z,2.01
2018-12-14T13:02:32.686Z,2.03
2018-12-14T13:05:01.952Z,2.04
2018-12-14T13:07:30.856Z,2.05
2018-12-14T13:09:59.671Z,1.98
2018-12-14T13:12:28.561Z,2.06
2018-12-14T13:14:57.623Z,1.98
2018-12-14T13:17:26.520Z,1.92
2018-12-14T13:19:56.711Z,2.02
2018-12-14T13:22:25.563Z,2.03
2018-12-14T13:24:54.547Z,1.94
2018-12-14T13:27:23.444Z,1.96
2018-12-14T13:29:52.304Z,1.94
2018-12-14T13:32:21.211Z,2.01
2018-12-14T13:34:50.059Z,1.78
2018-12-14T13:37:18.952Z,1.67
2018-12-14T13:39:47.875Z,1.64
2018-12-14T13:42:16.829Z,1.56
2018-12-14T13:44:46.725Z,1.59
2018-12-14T13:47:15.802Z,1.46
2018-12-14T13:49:44.646Z,1.52
2018-12-14T13:52:13.630Z,1.53
2018-12-14T13:54:42.458Z,1.39
2018-12-14T13:57:11.401Z,1.31
2018-12-14T13:59:40.287Z,1.24
2018-12-14T14:02:09.229Z,1.17
2018-12-14T14:04:38.091Z,1.17
2018-12-14T14:07:06.948Z,1.08
2018-12-14T14:09:35.984Z,1.07
2018-12-14T14:12:04.934Z,1.15
2018-12-14T14:14:33.943Z,1.11
2018-12-14T14:17:02.782Z,1.07
2018-12-14T14:19:31.951Z,0.88
2018-12-14T14:22:00.911Z,0.90
2018-12-14T14:24:29.809Z,0.72
2018-12-14T14:26:58.745Z,0.86
2018-12-14T14:29:27.571Z,0.68
2018-12-14T14:31:56.492Z,0.63
2018-12-14T14:34:25.437Z,0.54
2018-12-14T14:36:54.314Z,0.51
2018-12-14T14:39:23.192Z,0.47
2018-12-14T14:41:52.204Z,0.42
2018-12-14T14:44:21.083Z,0.36
2018-12-14T14:46:50.063Z,0.37
2018-12-14T14:49:18.954Z,0.39
2018-12-14T14:51:48.099Z,0.38
2018-12-14T14:54:17.138Z,0.38
2018-12-14T14:56:46.053Z,0.42
2018-12-14T14:59:14.906Z,0.47
2018-12-14T15:01:43.832Z,0.38
2018-12-14T15:04:12.702Z,0.30
2018-12-14T15:06:41.672Z,0.30
2018-12-14T15:09:10.634Z,0.24
2018-12-14T15:11:39.493Z,0.26
2018-12-14T15:14:08.450Z,0.24
2018-12-14T15:16:37.395Z,0.18
2018-12-14T15:19:06.331Z,0.15
2018-12-14T15:21:35.244Z,0.17
2018-12-14T15:24:04.162Z,0.17
2018-12-14T15:26:33.058Z,0.18
2018-12-14T15:29:01.944Z,0.22
2018-12-14T15:31:30.799Z,0.17
2018-12-14T15:33:59.851Z,0.17
2018-12-14T15:36:28.759Z,0.18
2018-12-14T15:38:57.655Z,0.20
2018-12-14T15:41:26.511Z,0.13
2018-12-14T15:43:55.361Z,0.11
2018-12-14T15:46:24.228Z,0.15
2018-12-14T15:48:53.153Z,0.12
2018-12-14T15:51:22.148Z,0.08
2018-12-14T15:53:51.063Z,0.07
2018-12-14T15:56:19.926Z,0.13
2018-12-14T15:58:48.791Z,0.11
2018-12-14T16:01:17.646Z,0.14
2018-12-14T16:03:46.510Z,0.18
2018-12-14T16:06:15.406Z,0.16
2018-12-14T16:08:44.376Z,0.18
2018-12-14T16:11:13.638Z,0.22
2018-12-14T16:13:42.684Z,0.29
2018-12-14T16:16:11.555Z,0.38
2018-12-14T16:18:40.562Z,0.44
2018-12-14T16:21:09.525Z,0.44
2018-12-14T16:23:38.425Z,0.48
2018-12-14T16:26:07.810Z,0.43
2018-12-14T16:28:36.722Z,0.42
2018-12-14T16:31:05.710Z,0.37
2018-12-14T16:33:34.590Z,0.37
2018-12-14T16:36:03.427Z,0.35
2018-12-14T16:38:32.322Z,0.35
2018-12-14T16:41:01.401Z,0.34
2018-12-14T16:43:30.332Z,0.30
2018-12-14T16:45:59.175Z,0.38
2018-12-14T16:48:28.031Z,0.36
2018-12-14T16:50:56.877Z,0.32
2018-12-14T16:53:25.753Z,0.35
2018-12-14T16:55:55.092Z,0.35
2018-12-14T16:58:24.031Z,0.38
2018-12-14T17:00:53.012Z,0.36
2018-12-14T17:03:22.281Z,0.28
2018-12-14T17:05:51.129Z,0.32
2018-12-14T17:08:20.112Z,0.30
2018-12-14T17:10:48.951Z,0.32
2018-12-14T17:13:17.863Z,0.36
2018-12-14T17:15:46.760Z,0.34
2018-12-14T17:18:15.771Z,0.45
2018-12-14T17:20:44.599Z,0.83
2018-12-14T17:23:13.423Z,1.04
2018-12-14T17:25:42.335Z,1.07
2018-12-14T17:28:11.235Z,1.19
2018-12-14T17:30:40.099Z,1.09
2018-12-14T17:33:09.335Z,1.24
2018-12-14T17:35:38.163Z,1.27
2018-12-14T17:38:09.144Z,1.03
2018-12-14T17:40:40.006Z,1.07
2018-12-14T17:43:08.879Z,1.06
2018-12-14T17:45:39.829Z,1.06
2018-12-14T17:48:08.536Z,1.01
2018-12-14T17:50:37.355Z,1.61
2018-12-14T17:53:06.227Z,1.48
2018-12-14T17:55:35.171Z,1.21
2018-12-14T17:58:04.134Z,1.10
2018-12-14T18:00:33.044Z,0.90
2018-12-14T18:03:02.002Z,0.82
2018-12-14T18:05:30.849Z,0.77
2018-12-14T18:07:59.698Z,0.74
2018-12-14T18:10:28.574Z,0.65
2018-12-14T18:12:57.486Z,0.69
2018-12-14T18:15:26.405Z,0.58
2018-12-14T18:17:55.349Z,0.56
2018-12-14T18:20:24.206Z,0.51
2018-12-14T18:22:53.241Z,0.51
2018-12-14T18:25:22.308Z,0.42
2018-12-14T18:27:51.139Z,0.42
2018-12-14T18:30:19.971Z,0.32
2018-12-14T18:32:48.845Z,0.33
2018-12-14T18:35:17.677Z,0.22
2018-12-14T18:37:46.521Z,0.17
2018-12-14T18:40:15.448Z,0.15
2018-12-14T18:42:44.363Z,0.22
2018-12-14T18:45:13.311Z,0.20
2018-12-14T18:47:42.375Z,0.16
2018-12-14T18:50:12.415Z,0.15
2018-12-14T18:52:41.322Z,0.25
2018-12-14T18:55:10.231Z,0.47
2018-12-14T18:57:39.203Z,0.82
2018-12-14T19:00:10.099Z,0.84
2018-12-14T19:02:40.904Z,0.77
2018-12-14T19:05:09.808Z,0.77
2018-12-14T19:07:38.782Z,0.69
2018-12-14T19:10:07.703Z,0.82
2018-12-14T19:12:37.142Z,0.80
2018-12-14T19:15:06.406Z,0.68
2018-12-14T19:17:35.295Z,0.68
2018-12-14T19:20:04.392Z,0.74
2018-12-14T19:22:33.382Z,0.70
2018-12-14T19:25:02.313Z,0.62
2018-12-14T19:27:31.280Z,0.61
2018-12-14T19:30:00.151Z,0.49
2018-12-14T19:32:29.280Z,0.37
2018-12-14T19:34:58.383Z,0.20
2018-12-14T19:37:27.328Z,0.16
2018-12-14T19:39:56.346Z,0.04
2018-12-14T19:42:25.222Z,0.11
2018-12-14T19:44:54.253Z,0.16
2018-12-14T19:47:25.013Z,0.06
2018-12-14T19:49:54.044Z,0.05
2018-12-14T19:52:22.943Z,0.03
2018-12-14T19:54:51.795Z,0.05
2018-12-14T19:57:20.655Z,-0.01
2018-12-14T19:59:49.533Z,0.07
2018-12-14T20:02:18.487Z,0.06
2018-12-14T20:04:47.531Z,0.10
2018-12-14T20:07:16.475Z,0.52
2018-12-14T20:09:45.553Z,1.06
2018-12-14T20:12:14.576Z,0.83
2018-12-14T20:14:43.585Z,0.75
2018-12-14T20:17:12.567Z,0.59
2018-12-14T20:19:41.430Z,0.48
2018-12-14T20:22:10.295Z,0.37
2018-12-14T20:24:39.227Z,0.29
2018-12-14T20:27:08.110Z,0.31
2018-12-14T20:29:36.986Z,0.18
2018-12-14T20:32:05.932Z,0.26
2018-12-14T20:34:34.998Z,0.19
2018-12-14T20:37:04.035Z,0.18
2018-12-14T20:39:32.977Z,0.11
2018-12-14T20:42:01.979Z,0.14
2018-12-14T20:44:32.039Z,0.19
2018-12-14T20:47:01.151Z,0.12
2018-12-14T20:49:30.498Z,0.01
2018-12-14T20:51:59.415Z,-0.07
2018-12-14T20:54:28.283Z,0.06
2018-12-14T20:56:57.156Z,0.14
2018-12-14T20:59:26.091Z,0.12
2018-12-14T21:01:54.951Z,0.06
2018-12-14T21:04:23.812Z,-0.03
2018-12-14T21:06:52.797Z,-0.02
2018-12-14T21:09:21.810Z,0.03
2018-12-14T21:11:50.750Z,-0.05
2018-12-14T21:14:19.967Z,-0.04
2018-12-14T21:19:38.383Z,0.02
2018-12-14T21:22:11.987Z,0.02
2018-12-14T21:24:41.246Z,0.04
2018-12-14T21:27:10.159Z,0.08
2018-12-14T21:29:39.004Z,0.04
2018-12-14T21:32:07.928Z,0.11
2018-12-14T21:34:36.819Z,0.14
2018-12-14T21:37:05.695Z,0.16
2018-12-14T21:39:34.584Z,0.10
2018-12-14T21:42:03.491Z,0.09
2018-12-14T21:44:32.371Z,0.11
2018-12-14T21:47:01.299Z,0.10
2018-12-14T21:49:30.509Z,0.03
2018-12-14T21:51:59.395Z,-0.01
2018-12-14T21:54:28.311Z,-0.08
2018-12-14T21:56:57.175Z,-0.01
2018-12-14T21:59:26.093Z,-0.18
2018-12-14T22:01:55.061Z,-0.12
2018-12-14T22:04:23.939Z,-0.22
2018-12-14T22:06:52.839Z,-0.20
2018-12-14T22:09:21.967Z,-0.25
2018-12-14T22:11:50.810Z,-0.22
2018-12-14T22:14:19.682Z,-0.20
2018-12-14T22:16:48.591Z,-0.26
2018-12-14T22:19:17.566Z,-0.33
2018-12-14T22:21:46.606Z,-0.26
2018-12-14T22:24:16.091Z,-0.28
2018-12-14T22:26:45.544Z,-0.36
2018-12-14T22:29:14.838Z,-0.31
2018-12-14T22:31:44.514Z,-0.30
2018-12-14T22:34:13.343Z,-0.35
2018-12-14T22:36:42.222Z,-0.35
2018-12-14T22:39:11.725Z,-0.39
2018-12-14T22:41:40.716Z,-0.45
2018-12-14T22:44:09.556Z,-0.45
2018-12-14T22:46:38.412Z,-0.41
2018-12-14T22:49:07.267Z,-0.40
2018-12-14T22:51:36.233Z,-0.42
2018-12-14T22:54:05.243Z,-0.49
2018-12-14T22:56:34.099Z,-0.45
2018-12-14T22:59:02.983Z,-0.41
2018-12-14T23:01:32.043Z,-0.49
2018-12-14T23:04:00.943Z,-0.45
2018-12-14T23:06:30.059Z,-0.45
2018-12-14T23:08:58.933Z,-0.43
2018-12-14T23:11:27.834Z,-0.47
2018-12-14T23:13:56.787Z,-0.51
2018-12-14T23:16:25.891Z,-0.48
2018-12-14T23:18:54.730Z,-0.48
2018-12-14T23:21:23.614Z,-0.51
2018-12-14T23:23:52.533Z,-0.46
2018-12-14T23:26:21.518Z,-0.50
2018-12-14T23:28:50.362Z,-0.48
2018-12-14T23:31:19.314Z,-0.52
2018-12-14T23:33:48.202Z,-0.58
2018-12-14T23:36:17.228Z,-0.53
2018-12-14T23:38:46.161Z,-0.53
2018-12-14T23:41:14.996Z,-0.56
2018-12-14T23:43:43.933Z,-0.60
2018-12-14T23:46:12.784Z,-0.69
2018-12-14T23:48:41.715Z,-0.70
2018-12-14T23:51:10.612Z,-0.60
2018-12-14T23:53:39.531Z,-0.56
2018-12-14T23:56:08.485Z,-0.58
2018-12-14T23:58:37.445Z,-0.65
